Aérodrome :
LOGIN :

S'inscrire | Disclaimer

   EN    FR    IT 

 










Légende :    VFR   VFR Marginal   IFR   IFR Intensif   IFR Très Intensif
Visi : 
Plafond : 
>= 8 km
>= 3000ft
5 à 8 km
1000 à 3000 ft
1500m à 5 km
500 à 1000 ft
800 à 1500m
200 à 500 ft
< 800m
< 200 ft
Symboles :   Orages  Brouillard  Fortes neiges  Fortes précipitations  Vent > 20 kt
SIGMETs :   Divers  Orages  Givrage  Turbulence  Onde Orograph.  Cendres Volcan.







- Altitude de l'aérodrome : 1900 ft
- Code IATA : FEZ


GMFF - Fez Saiss

DERNIER METAR :
  • 262330Z 28005KT 240V300 8000 TS RA FEW013 BKN030 SCT033CB 15/15 Q1017 NOSIG

METARs EXPIRÉS :
  • 262300Z 26003KT 230V300 8000 TS RA BKN030 SCT033CB 15/15 Q1017 NOSIG
  • 262230Z 28007KT 9999 TS RA BKN030 SCT033CB 15/15 Q1017 NOSIG
  • 262200Z 27003KT 200V340 9999 TS RA BKN030 SCT033CB 15/15 Q1017 NOSIG
  • 262130Z 25010KT 0900 0400E R27/0900V1300N R09/0900V1600N TS RA BKN030 SCT033CB 15/15 Q1016 NOSIG
  • 262100Z 30012KT 9999 TS SCT030 SCT033CB 18/13 Q1015 NOSIG

TAF TAF GMFF
Valide du 27 à 00h jusqu'au 28 à 06h UTC


262300Z 2700/2806 28010KT 8000 FEW013 BKN030 SCT033CB
TEMPO 2623/2701 2000 TSRA
BECMG 2701/2703 06006KT SCT010 BKN030
Pas de NOTAMs connus pour ce terrain.
2 SIGMETs publiés pour la FIR Casablanca (GMMM) :
 
Orages noyés dans la masse
GMMM SIGMET 03 VALID 262345/270345 GMMC
GMMM CASABLANCA FIR EMBD TS OBS N OF LINE N3448 W00619 - N3301 W0043 3 - N3504 W00234 TOP FL380 MOV N NC=
Orages noyés dans la masse
GMMM SIGMET 02 VALID 262110/262345 GMMC
GMMM CASABLANCA FIR EMBD TS OBS N OF LINE N3513 WW354 - N3331 W00402 - N3206 W00518 - N3152 W00619 - N3316 W00653 - N3522 W00501 TOP FL 470 MOV N NC=



MET'MAP, la Météo Aéronautique d'un coup d'oeil ! - Copyright ORBIFLY Décembre 2007 - Disclaimer

ORBIFLY MET'MAP TEAM :

Programmation & Développement : Alexandra Zaïnal
Conception & Développement : Baudouin d'Aumeries
Co-Programmation & Développement : Marc-Olivier Méhu
Soutien technique & logistique : Manuel Goepfert

Contact : metmap@orbifly.com




SOURCES & CREDITS :

   NOAA